Time;durP1;ratioP1;P1;durP2;ratioP2;P2;SDS_P1;SDS_P2;PMS_P1;PMS_P2;Temp;Humidity;BMP_temperature;BMP_pressure;BME280_temperature;BME280_humidity;BME280_pressure;Samples;Min_cycle;Max_cycle;Signal;HPM_P1;HPM_P2
2021/11/06 00:02:20;;;;;;;48.25;23.02;;;18.30;67.30;;;;;;6213332;23;20015;-67
2021/11/06 00:04:46;;;;;;;46.13;22.05;;;18.30;67.30;;;;;;6213683;23;20004;-67
2021/11/06 00:07:12;;;;;;;44.72;21.35;;;18.30;67.30;;;;;;6213596;23;20007;-67
2021/11/06 00:09:38;;;;;;;46.75;20.85;;;18.40;67.30;;;;;;6213510;23;20001;-67
2021/11/06 00:12:04;;;;;;;41.72;20.25;;;18.40;67.40;;;;;;6213701;23;20003;-67
2021/11/06 00:14:30;;;;;;;43.83;19.63;;;18.40;67.40;;;;;;6213268;23;20440;-67
2021/11/06 00:16:55;;;;;;;35.80;18.52;;;18.40;67.30;;;;;;6214548;23;20008;-67
2021/11/06 00:19:21;;;;;;;40.50;19.25;;;18.40;67.30;;;;;;6213514;23;20012;-67
2021/11/06 00:21:47;;;;;;;40.08;20.17;;;18.40;67.30;;;;;;6215168;23;20263;-67
2021/11/06 00:24:12;;;;;;;41.13;19.45;;;18.40;67.30;;;;;;6213491;23;20467;-67
2021/11/06 00:26:38;;;;;;;40.45;20.02;;;18.40;67.30;;;;;;6213249;23;20443;-67
2021/11/06 00:29:04;;;;;;;40.03;19.67;;;18.40;67.40;;;;;;6215080;23;20025;-67
2021/11/06 00:31:30;;;;;;;41.40;18.20;;;18.50;67.50;;;;;;6214515;23;20499;-67
2021/11/06 00:33:56;;;;;;;39.92;18.15;;;18.50;67.40;;;;;;6213423;23;20020;-67
2021/11/06 00:36:24;;;;;;;38.60;18.50;;;18.50;67.50;;;;;;6214854;23;20067;-67
2021/11/06 00:38:50;;;;;;;36.65;18.17;;;18.50;67.40;;;;;;6214873;23;20055;-67
2021/11/06 00:41:15;;;;;;;35.45;18.52;;;18.50;67.40;;;;;;6214877;23;20004;-67
2021/11/06 00:43:41;;;;;;;37.53;17.25;;;18.50;67.40;;;;;;6214770;23;20439;-67
2021/11/06 00:46:07;;;;;;;35.42;17.50;;;18.50;67.40;;;;;;6212969;23;20009;-67
2021/11/06 00:48:32;;;;;;;33.58;16.88;;;18.50;67.40;;;;;;6214505;23;20004;-67
2021/11/06 00:50:58;;;;;;;35.65;16.95;;;18.50;67.40;;;;;;6213442;23;20363;-67
2021/11/06 00:53:24;;;;;;;38.05;18.00;;;18.60;67.50;;;;;;6214690;23;20047;-67
2021/11/06 00:55:49;;;;;;;34.97;16.95;;;18.60;67.50;;;;;;6188357;23;20046;-67
2021/11/06 00:58:15;;;;;;;38.75;17.45;;;18.60;67.50;;;;;;6214948;23;20050;-67
2021/11/06 01:00:41;;;;;;;37.85;17.33;;;18.60;67.50;;;;;;6187848;23;20004;-67
2021/11/06 01:03:06;;;;;;;33.30;16.73;;;18.60;67.50;;;;;;6213247;23;20011;-67
2021/11/06 01:05:32;;;;;;;35.67;17.88;;;18.60;67.50;;;;;;6188296;23;20007;-67
2021/11/06 01:07:58;;;;;;;29.67;15.95;;;18.60;67.50;;;;;;6214532;23;20005;-67
2021/11/06 01:10:23;;;;;;;31.55;15.45;;;18.60;67.50;;;;;;6214791;23;20067;-67
2021/11/06 01:12:49;;;;;;;35.50;17.02;;;18.60;67.50;;;;;;6188226;23;20020;-67
2021/11/06 01:15:14;;;;;;;33.15;15.77;;;18.60;67.50;;;;;;6214178;23;20489;-67
2021/11/06 01:17:41;;;;;;;32.63;15.25;;;18.60;67.50;;;;;;6212985;23;20027;-67
2021/11/06 01:20:07;;;;;;;29.98;15.18;;;18.60;67.50;;;;;;6188413;23;20000;-67
2021/11/06 01:22:33;;;;;;;31.85;15.82;;;18.60;67.60;;;;;;6213113;23;20001;-67
2021/11/06 01:24:59;;;;;;;30.88;14.73;;;18.60;67.50;;;;;;6214708;23;20088;-67
2021/11/06 01:27:24;;;;;;;32.22;15.73;;;18.70;67.60;;;;;;6213136;23;20028;-67
2021/11/06 01:29:50;;;;;;;27.25;14.70;;;18.70;67.50;;;;;;6212719;23;20431;-67
2021/11/06 01:32:15;;;;;;;28.23;14.95;;;18.70;67.60;;;;;;6213311;23;19996;-67
2021/11/06 01:34:41;;;;;;;30.17;14.98;;;18.70;67.50;;;;;;6214471;23;20072;-67
2021/11/06 01:37:07;;;;;;;28.15;14.70;;;18.70;68.60;;;;;;6214607;23;20008;-67
2021/11/06 01:39:32;;;;;;;29.45;14.98;;;18.70;67.60;;;;;;6213029;23;20027;-67
2021/11/06 01:41:58;;;;;;;30.23;14.27;;;18.70;67.60;;;;;;6214496;23;20028;-67
2021/11/06 01:44:24;;;;;;;30.05;14.98;;;18.70;67.50;;;;;;6214218;23;20397;-67
2021/11/06 01:46:50;;;;;;;29.58;14.52;;;18.80;67.60;;;;;;6212995;23;20432;-67
2021/11/06 01:49:20;;;;;;;26.92;14.95;;;18.80;67.60;;;;;;6213126;23;19997;-67
2021/11/06 01:51:46;;;;;;;31.08;14.65;;;18.80;67.60;;;;;;6214369;23;19996;-67
2021/11/06 01:54:12;;;;;;;26.92;14.15;;;18.80;67.60;;;;;;6188320;23;20001;-67
2021/11/06 01:56:37;;;;;;;29.67;14.77;;;18.80;67.60;;;;;;6214332;23;20028;-67
2021/11/06 01:59:03;;;;;;;29.92;14.45;;;18.80;67.60;;;;;;6214505;23;20068;-67
2021/11/06 02:01:28;;;;;;;25.13;13.15;;;18.80;67.60;;;;;;6214439;23;20008;-67
2021/11/06 02:03:54;;;;;;;22.20;12.45;;;18.80;67.70;;;;;;6212843;23;20344;-67
2021/11/06 02:06:20;;;;;;;25.48;13.45;;;18.80;67.70;;;;;;6214529;23;20436;-67
2021/11/06 02:08:45;;;;;;;28.08;13.93;;;18.80;67.70;;;;;;6212826;23;20005;-67
2021/11/06 02:11:11;;;;;;;25.45;12.95;;;18.80;67.70;;;;;;6214289;23;20004;-67
2021/11/06 02:13:36;;;;;;;26.15;13.88;;;18.80;67.70;;;;;;6162718;23;20004;-68
2021/11/06 02:16:02;;;;;;;24.70;13.02;;;18.80;67.70;;;;;;6215848;23;20004;-68
2021/11/06 02:18:28;;;;;;;26.27;13.38;;;18.80;67.70;;;;;;6214654;23;20510;-68
2021/11/06 02:21:04;;;;;;;24.13;12.07;;;18.90;67.80;;;;;;6189729;23;20077;-68
2021/11/06 02:23:34;;;;;;;22.73;11.73;;;18.90;67.70;;;;;;6214853;23;20011;-68
2021/11/06 02:26:00;;;;;;;22.17;11.82;;;18.90;67.80;;;;;;6189809;23;20062;-67
2021/11/06 02:28:26;;;;;;;22.13;12.05;;;18.90;67.90;;;;;;6214187;23;20043;-67
2021/11/06 02:30:51;;;;;;;25.63;13.15;;;18.90;67.80;;;;;;6216033;23;20359;-67
2021/11/06 02:33:17;;;;;;;22.73;12.05;;;18.90;67.80;;;;;;6216096;23;20000;-67
2021/11/06 02:35:42;;;;;;;24.75;12.18;;;18.90;67.70;;;;;;6214591;23;19996;-67
2021/11/06 02:38:11;;;;;;;22.60;11.77;;;18.90;67.70;;;;;;6216180;23;20000;-67
2021/11/06 02:40:37;;;;;;;20.88;11.75;;;18.90;67.70;;;;;;6214046;23;20538;-67
2021/11/06 02:43:02;;;;;;;23.52;11.52;;;18.90;67.70;;;;;;6189750;23;20005;-67
2021/11/06 02:45:28;;;;;;;23.77;12.50;;;18.90;67.80;;;;;;6214598;23;20005;-67
2021/11/06 02:47:55;;;;;;;21.85;11.45;;;18.90;67.70;;;;;;6215845;23;20086;-67
2021/11/06 02:50:20;;;;;;;25.23;12.43;;;18.90;67.80;;;;;;6216049;23;20003;-67
2021/11/06 02:52:46;;;;;;;21.85;11.73;;;19.00;67.80;;;;;;6214203;23;20001;-67
2021/11/06 02:55:12;;;;;;;21.08;11.43;;;18.90;67.80;;;;;;6189176;23;20071;-67
2021/11/06 02:57:38;;;;;;;20.35;11.57;;;19.00;67.80;;;;;;6214405;23;20088;-67
2021/11/06 03:00:05;;;;;;;21.10;11.45;;;19.00;67.80;;;;;;6214245;23;20084;-67
2021/11/06 03:02:31;;;;;;;22.42;11.65;;;19.00;67.80;;;;;;6214254;23;20062;-67
2021/11/06 03:04:57;;;;;;;23.30;11.70;;;18.90;67.80;;;;;;6214254;23;20024;-67
2021/11/06 03:07:23;;;;;;;20.85;11.35;;;18.90;67.80;;;;;;6214220;23;20009;-67
2021/11/06 03:09:48;;;;;;;22.13;10.85;;;18.90;67.80;;;;;;6215248;23;20068;-67
2021/11/06 03:12:15;;;;;;;19.83;11.02;;;19.00;67.80;;;;;;6215750;23;20005;-67
2021/11/06 03:14:42;;;;;;;22.00;12.15;;;19.00;67.90;;;;;;6214115;23;20123;-67
2021/11/06 03:17:08;;;;;;;20.65;10.57;;;18.90;67.80;;;;;;6214046;23;20009;-67
2021/11/06 03:19:34;;;;;;;19.10;9.95;;;19.00;67.90;;;;;;6214252;23;20000;-67
2021/11/06 03:22:00;;;;;;;18.83;10.27;;;19.00;67.90;;;;;;6215815;23;20005;-67
2021/11/06 03:24:26;;;;;;;21.50;10.35;;;19.00;67.90;;;;;;6213863;23;20011;-67
2021/11/06 03:26:51;;;;;;;20.33;10.52;;;19.00;68.00;;;;;;6215387;23;20031;-67
2021/11/06 03:29:17;;;;;;;24.65;10.27;;;19.00;68.00;;;;;;6214014;23;20023;-67
2021/11/06 03:31:43;;;;;;;19.00;10.70;;;19.00;67.90;;;;;;6213998;23;20344;-67
2021/11/06 03:34:08;;;;;;;19.50;10.63;;;19.00;67.90;;;;;;6215489;23;19997;-68
2021/11/06 03:36:34;;;;;;;20.10;10.50;;;19.00;68.00;;;;;;6213919;23;20068;-68
2021/11/06 03:39:00;;;;;;;16.23;9.00;;;19.00;67.90;;;;;;6214969;23;20001;-68
2021/11/06 03:41:25;;;;;;;17.27;10.23;;;19.00;67.90;;;;;;6213962;23;20011;-68
2021/11/06 03:43:51;;;;;;;19.80;10.15;;;19.00;68.00;;;;;;6213810;23;20028;-68
2021/11/06 03:46:16;;;;;;;20.33;10.85;;;19.00;68.00;;;;;;6215387;23;20439;-68
2021/11/06 03:48:42;;;;;;;18.02;9.82;;;19.00;68.00;;;;;;6215159;23;20107;-68
2021/11/06 03:51:08;;;;;;;17.73;9.52;;;19.00;68.00;;;;;;6215320;23;20000;-68
2021/11/06 03:53:34;;;;;;;22.45;9.90;;;19.00;68.00;;;;;;6213547;23;20035;-68
2021/11/06 03:56:02;;;;;;;17.05;9.65;;;19.00;68.00;;;;;;6213739;23;20328;-68
2021/11/06 03:58:27;;;;;;;18.73;10.25;;;19.00;68.00;;;;;;6213825;23;20016;-67
2021/11/06 04:00:53;;;;;;;19.08;9.52;;;19.00;68.00;;;;;;6213686;23;20004;-67
2021/11/06 04:03:18;;;;;;;17.85;10.15;;;19.00;68.00;;;;;;6215085;23;20000;-67
2021/11/06 04:05:45;;;;;;;17.80;9.30;;;19.00;68.00;;;;;;6213640;23;20010;-67
2021/11/06 04:08:11;;;;;;;16.55;8.95;;;19.00;68.00;;;;;;6213269;23;20001;-67
2021/11/06 04:10:37;;;;;;;17.35;9.55;;;19.00;68.00;;;;;;6188594;23;20320;-68
2021/11/06 04:13:02;;;;;;;15.20;9.25;;;19.00;68.00;;;;;;6215267;23;20529;-67
2021/11/06 04:15:28;;;;;;;16.42;9.05;;;19.00;68.00;;;;;;6213668;23;20095;-68
2021/11/06 04:17:54;;;;;;;16.48;8.82;;;19.00;68.00;;;;;;6213258;23;20043;-68
2021/11/06 04:20:19;;;;;;;17.00;9.07;;;19.00;68.00;;;;;;6188735;23;20007;-68
2021/11/06 04:22:45;;;;;;;14.13;8.85;;;19.00;68.00;;;;;;6214512;23;20007;-68
2021/11/06 04:25:11;;;;;;;16.02;8.52;;;19.00;68.00;;;;;;6214982;23;20027;-68
2021/11/06 04:27:36;;;;;;;15.40;8.25;;;19.00;68.10;;;;;;6213434;23;20462;-68
2021/11/06 04:30:04;;;;;;;19.10;9.07;;;19.00;68.10;;;;;;6214787;23;20000;-68
2021/11/06 04:32:29;;;;;;;16.42;9.32;;;19.00;68.10;;;;;;6188617;23;20000;-68
2021/11/06 04:34:55;;;;;;;18.70;8.75;;;19.00;68.10;;;;;;6214839;23;20020;-68
2021/11/06 04:37:20;;;;;;;13.60;8.80;;;19.00;68.10;;;;;;6212786;23;20027;-68
2021/11/06 04:39:46;;;;;;;16.85;8.52;;;19.00;68.10;;;;;;6214731;23;20001;-68
2021/11/06 04:42:11;;;;;;;12.88;7.70;;;19.00;68.10;;;;;;6214866;23;20059;-67
2021/11/06 04:44:37;;;;;;;15.02;8.30;;;19.00;68.10;;;;;;6214707;23;20008;-67
2021/11/06 04:47:03;;;;;;;15.05;8.27;;;19.00;68.10;;;;;;6214666;23;20000;-68
2021/11/06 04:49:28;;;;;;;14.32;8.25;;;19.00;68.10;;;;;;6214882;23;20004;-68
2021/11/06 04:51:54;;;;;;;13.55;7.70;;;19.00;68.10;;;;;;6187799;23;20003;-68
2021/11/06 04:54:20;;;;;;;13.80;8.25;;;19.00;68.10;;;;;;6213539;23;20001;-68
2021/11/06 04:56:47;;;;;;;14.18;7.85;;;19.00;68.10;;;;;;6214750;23;20007;-68
2021/11/06 04:59:12;;;;;;;16.42;8.13;;;19.00;68.10;;;;;;6188575;23;20432;-67
2021/11/06 05:01:38;;;;;;;12.57;7.43;;;19.00;68.10;;;;;;6214857;23;20080;-67
2021/11/06 05:04:04;;;;;;;14.98;8.50;;;19.00;68.10;;;;;;6214578;23;20000;-67
2021/11/06 05:06:31;;;;;;;15.65;7.57;;;19.00;68.10;;;;;;6212963;23;20052;-67
2021/11/06 05:08:56;;;;;;;16.05;8.15;;;19.00;68.10;;;;;;6214645;23;20001;-67
2021/11/06 05:11:22;;;;;;;14.68;7.82;;;19.00;68.10;;;;;;6214623;23;20008;-67
2021/11/06 05:13:48;;;;;;;16.02;7.68;;;19.00;68.10;;;;;;6188319;23;20343;-67
2021/11/06 05:16:14;;;;;;;13.55;7.78;;;19.00;68.10;;;;;;6188328;23;19997;-67
2021/11/06 05:18:39;;;;;;;15.70;7.38;;;19.00;68.10;;;;;;6214532;23;20021;-67
2021/11/06 05:21:05;;;;;;;13.70;7.07;;;19.00;68.20;;;;;;6214225;23;20004;-67
2021/11/06 05:23:31;;;;;;;13.80;7.47;;;19.00;68.10;;;;;;6214754;23;20013;-67
2021/11/06 05:25:56;;;;;;;13.43;7.40;;;19.00;68.10;;;;;;6213081;23;20497;-67
2021/11/06 05:28:22;;;;;;;11.63;7.30;;;19.10;68.20;;;;;;6214496;23;20454;-67
2021/11/06 05:30:48;;;;;;;13.75;7.00;;;19.00;68.10;;;;;;6213146;23;20032;-67
2021/11/06 05:33:13;;;;;;;13.93;7.72;;;19.00;68.20;;;;;;6213097;23;20000;-67
2021/11/06 05:35:40;;;;;;;11.55;6.78;;;19.00;68.20;;;;;;6214274;23;20004;-67
2021/11/06 05:38:05;;;;;;;13.40;7.20;;;19.00;68.20;;;;;;6214468;23;20478;-67
2021/11/06 05:40:31;;;;;;;13.55;7.07;;;19.00;68.20;;;;;;6214463;23;20001;-67
2021/11/06 05:42:57;;;;;;;14.05;7.45;;;19.10;68.20;;;;;;6213441;23;20001;-68
2021/11/06 05:45:23;;;;;;;10.55;6.72;;;19.10;68.20;;;;;;6214529;23;20008;-68
2021/11/06 05:47:48;;;;;;;13.18;6.88;;;19.00;68.20;;;;;;6213026;23;20391;-68
2021/11/06 05:50:15;;;;;;;12.50;6.93;;;19.10;68.30;;;;;;6215200;23;20428;-68
2021/11/06 05:52:41;;;;;;;12.40;7.05;;;19.00;68.20;;;;;;6190020;23;20450;-68
2021/11/06 05:55:08;;;;;;;14.35;6.72;;;19.00;68.20;;;;;;6214977;23;20063;-68
2021/11/06 05:57:35;;;;;;;11.27;6.30;;;19.00;68.20;;;;;;6190389;23;20001;-68
2021/11/06 06:00:05;;;;;;;11.48;6.75;;;19.10;68.30;;;;;;6214910;23;20083;-68
2021/11/06 06:02:30;;;;;;;10.85;6.22;;;19.00;68.20;;;;;;6215039;23;20028;-68
2021/11/06 06:04:57;;;;;;;11.25;6.45;;;19.00;68.20;;;;;;6215852;23;20008;-68
2021/11/06 06:07:22;;;;;;;12.18;6.60;;;19.10;69.30;;;;;;6216202;23;20050;-68
2021/11/06 06:09:48;;;;;;;10.18;6.57;;;19.00;68.20;;;;;;6216336;23;20005;-68
2021/11/06 06:12:13;;;;;;;10.45;6.03;;;19.00;68.30;;;;;;6216229;23;20000;-68
2021/11/06 06:14:39;;;;;;;10.82;6.22;;;19.00;68.30;;;;;;6215661;23;19996;-68
2021/11/06 06:17:05;;;;;;;10.45;6.32;;;19.00;68.20;;;;;;6213005;23;20019;-68
2021/11/06 06:19:30;;;;;;;10.65;5.80;;;19.10;68.30;;;;;;6215573;23;20008;-68
2021/11/06 06:21:56;;;;;;;9.35;6.28;;;19.00;68.20;;;;;;6215310;23;20023;-68
2021/11/06 06:24:21;;;;;;;13.10;6.60;;;19.00;68.30;;;;;;6213969;23;20014;-68
2021/11/06 06:26:47;;;;;;;10.52;6.05;;;19.00;68.20;;;;;;6215612;23;20316;-68
2021/11/06 06:29:13;;;;;;;9.27;5.47;;;19.00;68.20;;;;;;6213943;23;20008;-68
2021/11/06 06:31:38;;;;;;;11.98;5.63;;;19.00;68.20;;;;;;6215620;23;20001;-68
2021/11/06 06:34:04;;;;;;;10.05;5.47;;;19.00;68.20;;;;;;6213431;23;20001;-68
2021/11/06 06:36:30;;;;;;;8.90;5.50;;;19.00;68.30;;;;;;6215356;23;20020;-68
2021/11/06 06:38:55;;;;;;;12.82;6.18;;;19.10;68.30;;;;;;6214122;23;20005;-68
2021/11/06 06:41:22;;;;;;;9.57;5.55;;;19.00;68.30;;;;;;6215308;23;20019;-68
2021/11/06 06:43:49;;;;;;;8.48;5.28;;;19.00;68.30;;;;;;6215839;23;20004;-68
2021/11/06 06:46:14;;;;;;;12.20;5.63;;;19.00;68.30;;;;;;6189644;23;20087;-68
2021/11/06 06:48:40;;;;;;;8.77;5.38;;;19.00;68.30;;;;;;6214320;23;20008;-68
2021/11/06 06:51:05;;;;;;;13.00;5.47;;;19.10;68.30;;;;;;6214909;23;20416;-67
2021/11/06 06:53:31;;;;;;;10.13;5.60;;;19.00;68.30;;;;;;6216503;23;20004;-67
2021/11/06 06:55:57;;;;;;;8.75;5.05;;;19.00;68.30;;;;;;6214766;23;20486;-67
2021/11/06 06:58:22;;;;;;;10.82;5.57;;;19.10;68.30;;;;;;6216259;23;20027;-67
2021/11/06 07:00:48;;;;;;;7.78;4.80;;;19.10;68.30;;;;;;6189942;23;20091;-67
2021/11/06 07:03:14;;;;;;;8.80;5.22;;;19.10;68.30;;;;;;6214255;23;20071;-68
2021/11/06 07:05:39;;;;;;;9.07;5.10;;;19.10;68.30;;;;;;6215309;23;20004;-68
2021/11/06 07:08:06;;;;;;;8.45;5.10;;;19.10;68.30;;;;;;6189366;23;20020;-68
2021/11/06 07:10:33;;;;;;;8.93;5.13;;;19.10;68.30;;;;;;6214843;23;19997;-68
2021/11/06 07:12:58;;;;;;;9.02;5.30;;;19.10;68.30;;;;;;6211959;23;20333;-68
2021/11/06 07:15:24;;;;;;;8.70;4.95;;;19.10;68.30;;;;;;6214082;23;20005;-68
2021/11/06 07:17:50;;;;;;;8.77;4.97;;;19.10;68.30;;;;;;6213599;23;20439;-67
2021/11/06 07:20:19;;;;;;;8.70;5.03;;;19.10;68.30;;;;;;6215938;23;20335;-67
2021/11/06 07:22:45;;;;;;;9.48;5.13;;;19.10;68.30;;;;;;6214183;23;20055;-68
2021/11/06 07:25:10;;;;;;;10.23;5.45;;;19.10;68.30;;;;;;6215442;23;20000;-67
2021/11/06 07:27:36;;;;;;;7.63;4.63;;;19.10;68.40;;;;;;6214179;23;20012;-67
2021/11/06 07:30:02;;;;;;;7.35;4.70;;;19.10;68.40;;;;;;6215349;23;20055;-67
2021/11/06 07:32:28;;;;;;;8.75;5.15;;;19.10;68.40;;;;;;6214975;23;20000;-67
2021/11/06 07:34:53;;;;;;;7.93;4.72;;;19.10;68.40;;;;;;6215515;23;20496;-68
2021/11/06 07:37:19;;;;;;;9.05;5.03;;;19.10;68.40;;;;;;6215302;23;20004;-68
2021/11/06 07:39:44;;;;;;;8.48;4.57;;;19.10;68.40;;;;;;6214032;23;20387;-68
2021/11/06 07:42:10;;;;;;;9.63;5.00;;;19.10;68.50;;;;;;6213881;23;20331;-68
2021/11/06 07:44:36;;;;;;;8.80;5.38;;;19.10;68.50;;;;;;6215332;23;20004;-67
2021/11/06 07:47:01;;;;;;;8.10;4.80;;;19.10;68.50;;;;;;6214934;23;20012;-67
2021/11/06 07:49:27;;;;;;;8.32;5.07;;;19.10;68.50;;;;;;6215300;23;20343;-67
2021/11/06 07:51:57;;;;;;;6.70;4.00;;;19.10;68.50;;;;;;6215264;23;20007;-67
2021/11/06 07:54:24;;;;;;;7.95;4.57;;;19.10;68.40;;;;;;6189821;23;20420;-67
2021/11/06 07:56:49;;;;;;;9.07;4.53;;;19.10;68.40;;;;;;6215304;23;20051;-67
2021/11/06 07:59:15;;;;;;;9.10;4.82;;;19.00;68.40;;;;;;6213682;23;20375;-67
2021/11/06 08:01:40;;;;;;;8.93;4.60;;;19.10;68.40;;;;;;6214929;23;19997;-67
2021/11/06 08:04:06;;;;;;;8.77;4.18;;;19.00;68.40;;;;;;6213975;23;19997;-67
2021/11/06 08:06:32;;;;;;;7.57;4.22;;;19.10;68.50;;;;;;6212809;23;20000;-67
2021/11/06 08:08:57;;;;;;;7.35;4.10;;;19.10;68.50;;;;;;6214922;23;20436;-68
2021/11/06 08:11:24;;;;;;;7.75;4.32;;;19.10;68.50;;;;;;6212954;23;20030;-68
2021/11/06 08:13:49;;;;;;;9.30;4.72;;;19.10;68.50;;;;;;6188947;23;19996;-68
2021/11/06 08:16:15;;;;;;;6.95;4.22;;;19.10;68.50;;;;;;6215139;23;20001;-68
2021/11/06 08:18:41;;;;;;;7.57;4.32;;;19.10;68.50;;;;;;6213397;23;20028;-68
2021/11/06 08:21:07;;;;;;;7.68;4.25;;;19.10;68.50;;;;;;6213933;23;20008;-68
2021/11/06 08:23:32;;;;;;;8.27;4.40;;;19.10;68.50;;;;;;6187790;23;20000;-68
2021/11/06 08:25:58;;;;;;;7.35;4.13;;;19.10;68.50;;;;;;6214691;23;20008;-68
2021/11/06 08:28:24;;;;;;;6.50;3.88;;;19.10;68.50;;;;;;6213921;23;20090;-68
2021/11/06 08:30:49;;;;;;;6.80;4.43;;;19.10;68.50;;;;;;6213044;23;20067;-68
2021/11/06 08:33:15;;;;;;;7.03;3.83;;;19.10;68.50;;;;;;6214116;23;19997;-68
2021/11/06 08:35:40;;;;;;;5.80;4.13;;;19.10;68.50;;;;;;6213987;23;20001;-68
2021/11/06 08:38:06;;;;;;;6.47;4.18;;;19.10;68.50;;;;;;6213362;23;20082;-68
2021/11/06 08:40:32;;;;;;;4.45;3.15;;;19.10;68.50;;;;;;6214852;23;20070;-68
2021/11/06 08:42:57;;;;;;;5.85;3.78;;;19.10;68.50;;;;;;6215022;23;20001;-68
2021/11/06 08:45:23;;;;;;;6.55;4.00;;;19.10;68.50;;;;;;6214335;23;20013;-68
2021/11/06 08:47:49;;;;;;;7.50;3.83;;;19.10;68.50;;;;;;6188569;23;20054;-68
2021/11/06 08:50:20;;;;;;;8.02;4.28;;;19.10;69.50;;;;;;6214728;23;20114;-68
2021/11/06 08:52:46;;;;;;;5.53;3.78;;;19.10;68.50;;;;;;6214663;23;19996;-68
2021/11/06 08:55:12;;;;;;;7.13;4.15;;;19.10;68.50;;;;;;6188405;23;20001;-68
2021/11/06 08:57:38;;;;;;;7.43;4.28;;;19.10;68.50;;;;;;6212875;23;20081;-68
2021/11/06 09:00:12;;;;;;;6.47;3.65;;;19.10;68.50;;;;;;6188343;23;20000;-68
2021/11/06 09:02:38;;;;;;;6.95;3.72;;;19.10;68.50;;;;;;6214655;23;20506;-68
2021/11/06 09:05:05;;;;;;;6.50;3.88;;;19.10;68.50;;;;;;6213244;23;20001;-68
2021/11/06 09:07:32;;;;;;;5.72;3.60;;;19.10;68.50;;;;;;6213182;23;20012;-68
2021/11/06 09:09:59;;;;;;;11.63;4.05;;;19.10;68.50;;;;;;6213258;23;20023;-68
2021/11/06 09:12:25;;;;;;;6.07;3.30;;;19.10;68.50;;;;;;6212743;23;20079;-67
2021/11/06 09:14:51;;;;;;;5.63;3.67;;;19.10;68.50;;;;;;6188411;23;20043;-68
2021/11/06 09:17:17;;;;;;;8.93;4.30;;;19.10;68.50;;;;;;6214375;23;20008;-68
2021/11/06 09:19:42;;;;;;;7.15;3.92;;;19.10;68.50;;;;;;6213722;23;20001;-68
2021/11/06 09:22:08;;;;;;;6.20;3.67;;;19.10;68.50;;;;;;6213328;23;20024;-68
2021/11/06 09:24:34;;;;;;;6.72;3.67;;;19.10;68.50;;;;;;6214740;23;20505;-67
2021/11/06 09:26:59;;;;;;;7.85;3.70;;;19.10;68.50;;;;;;6216893;23;20075;-68
2021/11/06 09:29:25;;;;;;;6.25;3.80;;;19.10;68.50;;;;;;6217090;23;20569;-68
2021/11/06 09:31:50;;;;;;;6.05;4.13;;;19.10;68.50;;;;;;6217071;23;19997;-68
2021/11/06 09:34:16;;;;;;;4.97;3.42;;;19.10;68.50;;;;;;6217082;23;20035;-68
2021/11/06 09:36:42;;;;;;;6.35;3.72;;;19.10;68.50;;;;;;6217064;23;20000;-68
2021/11/06 09:39:08;;;;;;;6.32;3.10;;;19.10;68.50;;;;;;6215761;23;20011;-68
2021/11/06 09:41:34;;;;;;;6.53;3.28;;;19.10;68.50;;;;;;6214966;23;20004;-68
2021/11/06 09:44:00;;;;;;;7.45;2.83;;;19.00;67.20;;;;;;6214831;23;20080;-68
2021/11/06 09:46:25;;;;;;;6.53;2.40;;;18.80;66.90;;;;;;6215325;23;20000;-68
2021/11/06 09:48:51;;;;;;;6.30;2.13;;;18.60;66.40;;;;;;6215383;23;20335;-68
2021/11/06 09:51:18;;;;;;;6.82;2.08;;;18.50;66.50;;;;;;6216614;23;20000;-68
2021/11/06 09:53:45;;;;;;;4.70;1.88;;;18.30;66.30;;;;;;6216881;23;20352;-68
2021/11/06 09:56:12;;;;;;;4.20;1.73;;;18.30;66.40;;;;;;6215173;23;20000;-68
2021/11/06 09:58:37;;;;;;;4.95;1.92;;;18.20;66.30;;;;;;6215284;23;20009;-68
2021/11/06 10:01:04;;;;;;;4.95;1.80;;;18.20;66.30;;;;;;6214159;23;20207;-68
2021/11/06 10:03:29;;;;;;;5.63;1.95;;;18.10;66.20;;;;;;6214670;23;20078;-68
2021/11/06 10:06:02;;;;;;;3.75;1.98;;;18.10;66.20;;;;;;6189724;23;20368;-69
2021/11/06 10:08:36;;;;;;;6.28;2.00;;;18.10;66.20;;;;;;6215940;23;20005;-68
2021/11/06 10:11:09;;;;;;;7.78;1.80;;;18.00;66.20;;;;;;6214525;23;20004;-68
2021/11/06 10:13:54;;;;;;;4.53;1.80;;;18.00;65.80;;;;;;6214693;23;20024;-68
2021/11/06 10:16:50;;;;;;;5.53;1.70;;;18.00;65.80;;;;;;6214843;23;19997;-68
2021/11/06 10:19:31;;;;;;;3.75;2.03;;;18.00;65.40;;;;;;6216026;23;20009;-68
2021/11/06 10:22:09;;;;;;;8.73;1.83;;;18.00;65.80;;;;;;6216081;23;20432;-68
2021/11/06 10:24:40;;;;;;;4.68;1.48;;;17.90;65.50;;;;;;6215525;23;20007;-68
2021/11/06 10:27:19;;;;;;;3.60;1.50;;;17.90;65.70;;;;;;6215953;23;19997;-68
2021/11/06 10:30:09;;;;;;;6.88;1.40;;;17.90;65.30;;;;;;6214539;23;20001;-68
2021/11/06 10:32:35;;;;;;;4.15;1.63;;;17.90;65.10;;;;;;6214517;23;20055;-68
2021/11/06 10:35:11;;;;;;;5.85;1.85;;;17.90;65.40;;;;;;6214232;23;19996;-68
2021/11/06 10:37:37;;;;;;;9.23;1.70;;;17.90;65.20;;;;;;6215888;23;20001;-68
2021/11/06 10:40:03;;;;;;;4.82;1.63;;;17.80;65.20;;;;;;6214086;23;20031;-68
2021/11/06 10:42:29;;;;;;;8.25;1.80;;;17.80;65.10;;;;;;6214263;23;20036;-68
2021/11/06 10:45:15;;;;;;;6.15;1.40;;;17.80;64.90;;;;;;6216071;23;20051;-69
2021/11/06 10:48:01;;;;;;;6.05;1.63;;;17.80;64.50;;;;;;6189171;23;20033;-69
2021/11/06 10:50:48;;;;;;;4.15;1.42;;;17.80;64.70;;;;;;6214305;23;20432;-69
2021/11/06 10:53:36;;;;;;;2.85;1.40;;;17.70;64.50;;;;;;6215810;23;19996;-69
2021/11/06 10:56:05;;;;;;;4.65;1.33;;;17.70;64.40;;;;;;6214263;23;20000;-69
2021/11/06 10:58:34;;;;;;;4.60;1.50;;;17.60;64.60;;;;;;6214169;23;20451;-69
2021/11/06 11:01:06;;;;;;;2.17;1.30;;;17.60;64.50;;;;;;6190128;23;20080;-69
2021/11/06 11:03:33;;;;;;;3.65;1.33;;;17.60;64.40;;;;;;6214152;23;20000;-69
2021/11/06 11:06:00;;;;;;;4.60;1.70;;;17.50;64.60;;;;;;6215615;23;20005;-69
2021/11/06 11:08:26;;;;;;;9.25;1.67;;;17.60;64.50;;;;;;6214595;23;20001;-69
2021/11/06 11:10:52;;;;;;;3.10;1.02;;;17.50;64.40;;;;;;6189148;23;20080;-69
2021/11/06 11:13:22;;;;;;;2.35;1.08;;;17.50;64.80;;;;;;6214069;23;20055;-69
2021/11/06 11:15:50;;;;;;;1.75;1.10;;;17.60;65.00;;;;;;6189803;23;20023;-69
2021/11/06 11:18:35;;;;;;;2.13;1.35;;;17.70;65.10;;;;;;6214071;23;20013;-69
2021/11/06 11:21:19;;;;;;;1.80;0.88;;;17.80;64.90;;;;;;6215932;23;20508;-69
2021/11/06 11:24:18;;;;;;;3.03;1.17;;;17.90;64.90;;;;;;6214139;23;20036;-68
2021/11/06 11:26:46;;;;;;;4.68;1.02;;;17.90;64.80;;;;;;6212385;23;20440;-68
2021/11/06 11:29:14;;;;;;;2.72;1.10;;;17.90;65.00;;;;;;6188087;23;20028;-69
2021/11/06 11:31:40;;;;;;;2.95;1.00;;;17.90;64.90;;;;;;6214129;23;20036;-69
2021/11/06 11:34:08;;;;;;;3.25;1.05;;;17.90;64.90;;;;;;6187936;23;20332;-69
2021/11/06 11:36:34;;;;;;;1.80;1.02;;;18.00;64.90;;;;;;6212413;23;19996;-69
2021/11/06 11:39:00;;;;;;;2.95;1.10;;;18.00;64.90;;;;;;6212659;23;20370;-69
2021/11/06 11:41:32;;;;;;;21.90;1.65;;;18.00;64.90;;;;;;6213165;23;20011;-69
2021/11/06 11:44:19;;;;;;;10.30;2.60;;;18.00;64.90;;;;;;6213130;23;20020;-69
2021/11/06 11:46:53;;;;;;;23.58;3.00;;;18.10;65.00;;;;;;6213747;23;20008;-69
2021/11/06 11:49:19;;;;;;;20.67;3.80;;;18.10;65.20;;;;;;6212001;23;20032;-69
2021/11/06 11:51:45;;;;;;;24.13;3.88;;;18.20;65.20;;;;;;6211898;23;20001;-68
2021/11/06 11:54:11;;;;;;;18.63;3.70;;;18.20;65.30;;;;;;6187435;23;20344;-68
2021/11/06 11:56:38;;;;;;;17.95;3.75;;;18.30;65.40;;;;;;6187103;23;20361;-68
2021/11/06 11:59:04;;;;;;;17.17;2.92;;;18.30;65.30;;;;;;6212419;23;20012;-68
2021/11/06 12:01:30;;;;;;;14.52;2.90;;;18.40;65.30;;;;;;6214144;23;20087;-68
2021/11/06 12:03:57;;;;;;;14.23;3.47;;;18.40;65.50;;;;;;6212259;23;20485;-68
2021/11/06 12:06:30;;;;;;;12.85;2.97;;;18.40;65.50;;;;;;6212208;23;20000;-68
2021/11/06 12:08:58;;;;;;;13.77;3.10;;;18.50;65.50;;;;;;6212119;23;20470;-68
2021/11/06 12:11:25;;;;;;;12.35;2.67;;;18.50;65.50;;;;;;6213845;23;20001;-68
2021/11/06 12:13:53;;;;;;;15.57;3.17;;;18.50;65.60;;;;;;6212326;23;20001;-70
2021/11/06 12:16:40;;;;;;;16.30;2.85;;;18.50;65.60;;;;;;6182522;23;20011;-69
2021/11/06 12:19:06;;;;;;;14.77;3.00;;;18.60;65.60;;;;;;6210544;23;20021;-70
2021/11/06 12:21:37;;;;;;;11.43;2.53;;;18.60;65.70;;;;;;6209267;23;20007;-70
2021/11/06 12:24:08;;;;;;;18.95;3.35;;;18.60;65.80;;;;;;6209766;23;20080;-70
2021/11/06 12:27:01;;;;;;;13.32;3.00;;;18.60;65.90;;;;;;6211358;23;20454;-70
2021/11/06 12:29:31;;;;;;;12.63;2.83;;;18.60;65.80;;;;;;6204092;23;20467;-70
2021/11/06 12:32:09;;;;;;;10.77;2.70;;;18.70;66.00;;;;;;6209044;23;20012;-70
2021/11/06 12:34:45;;;;;;;14.65;4.18;;;18.70;66.10;;;;;;6208881;23;20024;-70
2021/11/06 12:37:32;;;;;;;12.35;2.72;;;18.70;66.10;;;;;;6208418;23;20075;-70
2021/11/06 12:39:57;;;;;;;11.13;2.80;;;18.70;66.10;;;;;;6188602;23;20013;-70